createdAt,value
2024-02-12T00:00:44.783Z,8.88
2024-02-12T00:03:12.741Z,7.80
2024-02-12T00:05:42.257Z,4.85
2024-02-12T00:08:12.464Z,6.00
2024-02-12T00:10:41.073Z,6.57
2024-02-12T00:13:09.372Z,6.00
2024-02-12T00:15:39.741Z,5.65
2024-02-12T00:18:08.437Z,7.20
2024-02-12T00:20:36.613Z,5.85
2024-02-12T00:23:07.604Z,5.32
2024-02-12T00:25:37.716Z,6.30
2024-02-12T00:28:08.721Z,4.90
2024-02-12T00:30:36.787Z,5.82
2024-02-12T00:33:07.972Z,7.15
2024-02-12T00:35:35.990Z,4.97
2024-02-12T00:38:05.685Z,5.47
2024-02-12T00:40:33.537Z,5.65
2024-02-12T00:43:01.787Z,8.68
2024-02-12T00:45:29.722Z,5.90
2024-02-12T00:47:58.243Z,6.70
2024-02-12T00:50:26.733Z,5.07
2024-02-12T00:52:55.085Z,6.18
2024-02-12T00:55:24.887Z,5.25
2024-02-12T00:57:55.579Z,6.45
2024-02-12T01:00:24.272Z,6.07
2024-02-12T01:02:54.137Z,5.45
2024-02-12T01:07:52.091Z,6.75
2024-02-12T01:10:20.113Z,6.20
2024-02-12T01:12:49.367Z,7.20
2024-02-12T01:15:17.510Z,6.53
2024-02-12T01:17:50.861Z,6.47
2024-02-12T01:20:23.856Z,7.78
2024-02-12T01:22:51.997Z,7.97
2024-02-12T01:25:20.301Z,6.78
2024-02-12T01:27:49.838Z,6.50
2024-02-12T01:30:17.971Z,6.35
2024-02-12T01:32:46.115Z,6.80
2024-02-12T01:35:14.322Z,6.55
2024-02-12T01:37:42.670Z,7.95
2024-02-12T01:40:12.782Z,6.43
2024-02-12T01:42:40.771Z,8.05
2024-02-12T01:45:15.462Z,7.45
2024-02-12T01:47:47.819Z,6.38
2024-02-12T01:50:16.960Z,9.70
2024-02-12T01:52:50.181Z,6.90
2024-02-12T01:55:19.967Z,6.15
2024-02-12T01:57:51.297Z,8.30
2024-02-12T02:00:26.564Z,8.25
2024-02-12T02:03:11.290Z,7.68
2024-02-12T02:05:40.353Z,6.38
2024-02-12T02:08:10.104Z,7.65
2024-02-12T02:10:37.982Z,7.80
2024-02-12T02:13:07.583Z,7.78
2024-02-12T02:15:37.096Z,6.47
2024-02-12T02:18:05.715Z,7.57
2024-02-12T02:20:36.747Z,8.05
2024-02-12T02:23:06.199Z,7.90
2024-02-12T02:25:36.370Z,7.90
2024-02-12T02:28:06.115Z,8.93
2024-02-12T02:30:34.131Z,11.40
2024-02-12T02:33:02.176Z,10.57
2024-02-12T02:35:31.428Z,11.00
2024-02-12T02:38:02.778Z,11.80
2024-02-12T02:40:31.144Z,8.90
2024-02-12T02:43:01.867Z,8.85
2024-02-12T02:45:29.925Z,8.80
2024-02-12T02:47:58.160Z,9.75
2024-02-12T02:50:28.131Z,10.15
2024-02-12T02:52:56.273Z,9.40
2024-02-12T02:55:24.760Z,9.48
2024-02-12T02:57:52.746Z,7.88
2024-02-12T03:00:23.232Z,9.80
2024-02-12T03:02:51.579Z,9.13
2024-02-12T03:06:05.355Z,8.75
2024-02-12T03:08:35.382Z,10.60
2024-02-12T03:11:05.701Z,9.18
2024-02-12T03:13:35.762Z,8.23
2024-02-12T03:16:05.513Z,9.43
2024-02-12T03:18:33.418Z,11.10
2024-02-12T03:21:01.297Z,10.60
2024-02-12T03:23:30.879Z,9.55
2024-02-12T03:25:58.736Z,8.30
2024-02-12T03:28:27.806Z,8.15
2024-02-12T03:30:55.624Z,6.93
2024-02-12T03:33:24.847Z,9.68
2024-02-12T03:35:52.674Z,8.57
2024-02-12T03:38:20.621Z,9.20
2024-02-12T03:40:48.527Z,7.88
2024-02-12T03:43:16.832Z,10.02
2024-02-12T03:45:46.498Z,9.75
2024-02-12T03:48:34.637Z,8.65
2024-02-12T03:51:21.756Z,8.07
2024-02-12T03:54:07.340Z,9.82
2024-02-12T03:56:52.908Z,7.90
2024-02-12T03:59:38.595Z,7.63
2024-02-12T04:02:08.329Z,7.82
2024-02-12T04:04:39.307Z,7.68
2024-02-12T04:07:08.909Z,8.57
2024-02-12T04:09:42.565Z,8.13
2024-02-12T04:12:12.924Z,8.93
2024-02-12T04:14:43.766Z,7.70
2024-02-12T04:17:15.304Z,9.13
2024-02-12T04:19:44.284Z,7.72
2024-02-12T04:22:16.018Z,8.23
2024-02-12T04:24:45.818Z,8.57
2024-02-12T04:27:14.556Z,7.63
2024-02-12T04:29:43.111Z,7.72
2024-02-12T04:32:13.000Z,9.13
2024-02-12T04:34:42.223Z,8.90
2024-02-12T04:37:13.179Z,7.35
2024-02-12T04:39:41.100Z,8.15
2024-02-12T04:42:10.325Z,8.85
2024-02-12T04:44:38.421Z,7.80
2024-02-12T04:47:06.769Z,8.23
2024-02-12T04:49:37.440Z,7.50
2024-02-12T04:52:07.102Z,6.82
2024-02-12T04:54:37.721Z,7.57
2024-02-12T04:57:06.235Z,6.93
2024-02-12T04:59:34.270Z,7.07
2024-02-12T05:02:02.337Z,7.72
2024-02-12T05:04:30.995Z,7.13
2024-02-12T05:06:59.101Z,7.55
2024-02-12T05:09:27.019Z,6.88
2024-02-12T05:11:56.306Z,6.43
2024-02-12T05:14:28.404Z,7.43
2024-02-12T05:17:00.781Z,8.40
2024-02-12T05:19:46.402Z,8.02
2024-02-12T05:22:32.007Z,7.80
2024-02-12T05:25:00.376Z,7.00
2024-02-12T05:27:30.738Z,6.95
2024-02-12T05:29:58.887Z,7.65
2024-02-12T05:32:28.304Z,6.82
2024-02-12T05:34:57.083Z,6.30
2024-02-12T05:37:25.369Z,7.13
2024-02-12T05:39:53.222Z,7.20
2024-02-12T05:42:21.102Z,8.18
2024-02-12T05:44:50.208Z,7.60
2024-02-12T05:47:18.759Z,6.85
2024-02-12T05:49:47.330Z,7.95
2024-02-12T05:52:15.276Z,7.22
2024-02-12T05:54:47.779Z,8.05
2024-02-12T05:57:15.756Z,7.32
2024-02-12T05:59:43.605Z,5.93
2024-02-12T06:02:13.462Z,8.25
2024-02-12T06:04:41.300Z,8.13
2024-02-12T06:07:09.303Z,8.07
2024-02-12T06:09:37.840Z,6.65
2024-02-12T06:12:10.295Z,7.43
2024-02-12T06:14:39.401Z,6.97
2024-02-12T06:17:09.463Z,7.78
2024-02-12T06:19:38.962Z,7.35
2024-02-12T06:22:07.253Z,7.95
2024-02-12T06:24:35.109Z,7.85
2024-02-12T06:27:02.942Z,8.77
2024-02-12T06:29:30.951Z,7.75
2024-02-12T06:31:58.813Z,8.05
2024-02-12T06:34:27.091Z,7.00
2024-02-12T06:37:12.920Z,7.82
2024-02-12T06:39:41.518Z,7.28
2024-02-12T06:42:09.374Z,8.38
2024-02-12T06:44:37.350Z,7.60
2024-02-12T06:47:05.555Z,7.97
2024-02-12T06:49:34.772Z,8.25
2024-02-12T06:52:03.950Z,6.72
2024-02-12T06:54:31.855Z,8.05
2024-02-12T06:57:00.192Z,7.70
2024-02-12T06:59:28.139Z,8.10
2024-02-12T07:01:57.888Z,7.18
2024-02-12T07:04:26.052Z,7.63
2024-02-12T07:06:55.848Z,7.90
2024-02-12T07:09:26.073Z,7.38
2024-02-12T07:11:54.159Z,8.32
2024-02-12T07:14:22.503Z,8.13
2024-02-12T07:16:51.787Z,7.18
2024-02-12T07:19:19.676Z,8.27
2024-02-12T07:21:47.758Z,8.25
2024-02-12T07:24:16.556Z,8.10
2024-02-12T07:26:46.503Z,9.63
2024-02-12T07:29:14.485Z,7.95
2024-02-12T07:31:43.831Z,7.32
2024-02-12T07:34:12.341Z,7.55
2024-02-12T07:36:44.654Z,7.85
2024-02-12T07:39:13.517Z,7.82
2024-02-12T07:41:42.319Z,7.65
2024-02-12T07:44:12.102Z,8.32
2024-02-12T07:46:41.358Z,9.57
2024-02-12T07:49:11.690Z,8.48
2024-02-12T07:51:41.655Z,6.72
2024-02-12T07:54:09.522Z,9.68
2024-02-12T07:56:37.550Z,7.68
2024-02-12T07:59:05.450Z,6.93
2024-02-12T08:01:34.654Z,8.27
2024-02-12T08:04:02.649Z,8.45
2024-02-12T08:06:30.930Z,8.00
2024-02-12T08:08:58.812Z,9.10
2024-02-12T08:11:26.724Z,8.30
2024-02-12T08:13:55.413Z,7.72
2024-02-12T08:16:23.338Z,8.07
2024-02-12T08:18:54.092Z,8.20
2024-02-12T08:21:22.166Z,8.57
2024-02-12T08:23:50.667Z,7.53
2024-02-12T08:26:18.620Z,8.95
2024-02-12T08:28:46.493Z,7.32
2024-02-12T08:31:18.793Z,8.32
2024-02-12T08:33:49.117Z,7.45
2024-02-12T08:36:18.653Z,8.52
2024-02-12T08:38:46.599Z,7.30
2024-02-12T08:41:24.200Z,7.93
2024-02-12T08:43:52.645Z,7.72
2024-02-12T08:46:20.704Z,8.20
2024-02-12T08:48:48.597Z,9.13
2024-02-12T08:51:17.862Z,8.02
2024-02-12T08:53:45.882Z,8.20
2024-02-12T08:56:17.577Z,8.27
2024-02-12T08:58:46.184Z,8.77
2024-02-12T09:01:15.049Z,7.07
2024-02-12T09:03:44.553Z,8.02
2024-02-12T09:06:15.150Z,7.95
2024-02-12T09:08:45.213Z,8.48
2024-02-12T09:11:14.528Z,8.07
2024-02-12T09:13:44.522Z,8.02
2024-02-12T09:16:12.409Z,9.48
2024-02-12T09:18:40.358Z,9.38
2024-02-12T09:21:07.492Z,7.30
2024-02-12T09:23:35.765Z,8.60
2024-02-12T09:26:06.843Z,6.97
2024-02-12T09:28:34.859Z,7.72
2024-02-12T09:31:02.839Z,7.75
2024-02-12T09:33:32.251Z,9.13
2024-02-12T09:36:00.227Z,8.93
2024-02-12T09:38:28.543Z,7.25
2024-02-12T09:40:58.350Z,7.85
2024-02-12T09:43:29.710Z,6.80
2024-02-12T09:45:58.299Z,8.82
2024-02-12T09:48:26.708Z,6.68
2024-02-12T09:50:54.645Z,6.28
2024-02-12T09:53:24.362Z,7.45
2024-02-12T09:55:54.000Z,8.25
2024-02-12T09:58:21.806Z,7.70
2024-02-12T10:00:51.795Z,6.85
2024-02-12T10:03:19.728Z,7.00
2024-02-12T10:05:47.659Z,6.07
2024-02-12T10:08:22.752Z,6.95
2024-02-12T10:10:51.290Z,6.57
2024-02-12T10:13:19.178Z,6.30
2024-02-12T10:15:47.901Z,7.35
2024-02-12T10:18:18.000Z,8.30
2024-02-12T10:20:46.402Z,10.52
2024-02-12T10:23:16.468Z,7.45
2024-02-12T10:25:46.944Z,6.68
2024-02-12T10:28:15.409Z,7.47
2024-02-12T10:30:44.155Z,7.13
2024-02-12T10:33:14.363Z,5.45
2024-02-12T10:35:47.853Z,6.93
2024-02-12T10:38:17.181Z,6.43
2024-02-12T10:40:53.890Z,7.65
2024-02-12T10:43:25.246Z,7.40
2024-02-12T10:45:54.550Z,7.50
2024-02-12T10:48:23.617Z,6.60
2024-02-12T10:50:55.689Z,7.25
2024-02-12T10:53:25.113Z,7.18
2024-02-12T10:55:54.374Z,7.68
2024-02-12T10:58:22.479Z,8.60
2024-02-12T11:01:02.926Z,8.35
2024-02-12T11:03:37.032Z,9.18
2024-02-12T11:06:12.282Z,7.85
2024-02-12T11:08:41.907Z,8.63
2024-02-12T11:11:17.084Z,9.15
2024-02-12T11:13:45.868Z,8.85
2024-02-12T11:16:14.778Z,8.98
2024-02-12T11:18:43.046Z,8.98
2024-02-12T11:21:17.838Z,7.85
2024-02-12T11:23:49.399Z,9.98
2024-02-12T11:26:18.337Z,8.65
2024-02-12T11:28:55.256Z,8.23
2024-02-12T11:31:27.467Z,8.80
2024-02-12T11:33:57.191Z,9.75
2024-02-12T11:36:29.031Z,8.98
2024-02-12T11:38:57.078Z,9.40
2024-02-12T11:41:25.407Z,10.50
2024-02-12T11:43:54.800Z,12.25
2024-02-12T11:46:22.837Z,13.07
2024-02-12T11:48:50.998Z,11.73
2024-02-12T11:51:21.958Z,10.95
2024-02-12T11:53:53.503Z,15.50
2024-02-12T11:56:23.066Z,12.15
2024-02-12T11:58:55.977Z,10.25
2024-02-12T12:01:24.286Z,12.27
2024-02-12T12:03:53.320Z,10.45
2024-02-12T12:06:23.414Z,11.57
2024-02-12T12:08:54.097Z,10.98
2024-02-12T12:11:22.541Z,14.88
2024-02-12T12:13:50.658Z,15.82
2024-02-12T12:16:18.548Z,17.02
2024-02-12T12:18:46.590Z,13.40
2024-02-12T12:21:15.702Z,15.43
2024-02-12T12:23:45.483Z,12.00
2024-02-12T12:26:15.141Z,14.23
2024-02-12T12:28:43.048Z,14.57
2024-02-12T12:31:12.439Z,17.33
2024-02-12T12:33:40.280Z,12.48
2024-02-12T12:36:12.152Z,14.98
2024-02-12T12:38:41.285Z,11.75
2024-02-12T12:41:11.409Z,18.02
2024-02-12T12:43:41.519Z,17.40
2024-02-12T12:46:09.493Z,20.00
2024-02-12T12:48:37.529Z,23.98
2024-02-12T12:51:06.874Z,16.65
2024-02-12T12:53:34.915Z,22.30
2024-02-12T12:56:03.038Z,15.60
2024-02-12T12:58:31.174Z,14.05
2024-02-12T13:01:00.539Z,15.63
2024-02-12T13:03:29.744Z,16.25
2024-02-12T13:05:57.958Z,18.10
2024-02-12T13:08:26.327Z,15.02
2024-02-12T13:10:54.721Z,15.93
2024-02-12T13:13:23.263Z,12.85
2024-02-12T13:15:52.004Z,14.88
2024-02-12T13:18:27.506Z,15.05
2024-02-12T13:20:55.514Z,11.55
2024-02-12T13:23:23.723Z,13.25
2024-02-12T13:25:52.092Z,13.70
2024-02-12T13:28:22.049Z,12.50
2024-02-12T13:30:50.143Z,12.45
2024-02-12T13:33:19.409Z,10.68
2024-02-12T13:35:50.527Z,10.38
2024-02-12T13:38:19.919Z,9.57
2024-02-12T13:40:49.383Z,15.50
2024-02-12T13:43:21.032Z,12.15
2024-02-12T13:45:50.962Z,13.50
2024-02-12T13:48:21.472Z,11.38
2024-02-12T13:50:52.998Z,11.40
2024-02-12T13:53:23.168Z,10.65
2024-02-12T13:55:52.305Z,14.32
2024-02-12T13:58:23.038Z,10.93
2024-02-12T14:01:04.183Z,12.02
2024-02-12T14:03:39.089Z,9.73
2024-02-12T14:06:09.834Z,9.18
2024-02-12T14:08:38.760Z,10.35
2024-02-12T14:11:07.299Z,8.48
2024-02-12T14:13:37.144Z,9.25
2024-02-12T14:16:09.795Z,6.72
2024-02-12T14:18:39.947Z,9.30
2024-02-12T14:21:11.495Z,8.07
2024-02-12T14:23:40.503Z,8.85
2024-02-12T14:26:10.597Z,13.05
2024-02-12T14:28:38.533Z,6.82
2024-02-12T14:31:07.945Z,7.13
2024-02-12T14:33:36.051Z,8.30
2024-02-12T14:36:04.714Z,8.75
2024-02-12T14:38:34.333Z,8.73
2024-02-12T14:41:03.807Z,9.00
2024-02-12T14:43:32.430Z,6.35
2024-02-12T14:46:01.647Z,7.50
2024-02-12T14:48:31.659Z,8.57
2024-02-12T14:50:59.852Z,10.45
2024-02-12T14:53:28.474Z,8.48
2024-02-12T14:55:59.401Z,8.75
2024-02-12T14:58:28.207Z,9.70
2024-02-12T15:00:56.490Z,9.48
2024-02-12T15:03:26.451Z,7.75
2024-02-12T15:05:55.968Z,5.90
2024-02-12T15:08:24.094Z,8.00
2024-02-12T15:10:53.129Z,10.50
2024-02-12T15:13:22.305Z,9.27
2024-02-12T15:15:50.256Z,8.23
2024-02-12T15:18:18.710Z,7.05
2024-02-12T15:20:47.300Z,12.40
2024-02-12T15:23:16.249Z,9.27
2024-02-12T15:25:45.110Z,9.75
2024-02-12T15:28:15.143Z,9.38
2024-02-12T15:30:46.490Z,6.28
2024-02-12T15:33:15.673Z,7.13
2024-02-12T15:35:43.874Z,11.98
2024-02-12T15:38:16.892Z,9.50
2024-02-12T15:40:44.932Z,10.13
2024-02-12T15:43:15.475Z,6.88
2024-02-12T15:45:45.495Z,7.63
2024-02-12T15:48:18.942Z,20.10
2024-02-12T15:50:47.968Z,11.27
2024-02-12T15:53:16.886Z,8.30
2024-02-12T15:55:44.710Z,9.45
2024-02-12T15:58:15.272Z,7.72
2024-02-12T16:00:45.432Z,10.98
2024-02-12T16:03:16.849Z,7.03
2024-02-12T16:06:10.204Z,10.95
2024-02-12T16:08:41.136Z,8.25
2024-02-12T16:11:11.861Z,10.23
2024-02-12T16:13:41.345Z,7.70
2024-02-12T16:16:10.707Z,7.50
2024-02-12T16:18:40.000Z,12.55
2024-02-12T16:21:08.751Z,8.68
2024-02-12T16:23:37.697Z,9.57
2024-02-12T16:26:08.118Z,9.05
2024-02-12T16:28:37.062Z,8.90
2024-02-12T16:31:05.820Z,14.60
2024-02-12T16:33:37.228Z,7.47
2024-02-12T16:36:06.323Z,10.15
2024-02-12T16:38:35.171Z,8.48
2024-02-12T16:41:04.040Z,10.68
2024-02-12T16:43:31.992Z,11.07
2024-02-12T16:45:59.824Z,9.38
2024-02-12T16:48:28.180Z,13.10
2024-02-12T16:50:57.546Z,10.20
2024-02-12T16:53:26.407Z,9.63
2024-02-12T16:55:54.242Z,8.95
2024-02-12T16:58:23.292Z,11.52
2024-02-12T17:00:52.015Z,12.55
2024-02-12T17:03:19.948Z,14.93
2024-02-12T17:05:47.948Z,9.60
2024-02-12T17:08:19.108Z,13.85
2024-02-12T17:10:47.085Z,9.15
2024-02-12T17:13:16.647Z,16.85
2024-02-12T17:15:45.133Z,12.63
2024-02-12T17:18:13.330Z,12.18
2024-02-12T17:20:42.816Z,12.70
2024-02-12T17:23:12.502Z,15.15
2024-02-12T17:25:41.755Z,14.98
2024-02-12T17:28:10.658Z,15.15
2024-02-12T17:30:38.801Z,20.40
2024-02-12T17:33:09.735Z,15.73
2024-02-12T17:35:37.983Z,16.48
2024-02-12T17:38:06.572Z,14.85
2024-02-12T17:40:34.829Z,15.85
2024-02-12T17:43:04.986Z,15.07
2024-02-12T17:45:32.845Z,18.17
2024-02-12T17:48:01.694Z,19.77
2024-02-12T17:50:30.717Z,15.90
2024-02-12T17:52:58.684Z,14.85
2024-02-12T17:55:27.955Z,20.08
2024-02-12T17:57:55.800Z,14.27
2024-02-12T18:00:25.379Z,17.85
2024-02-12T18:02:54.606Z,14.18
2024-02-12T18:05:23.054Z,15.10
2024-02-12T18:07:51.004Z,14.48
2024-02-12T18:10:19.023Z,16.25
2024-02-12T18:12:46.946Z,14.60
2024-02-12T18:15:16.427Z,15.00
2024-02-12T18:17:49.070Z,22.25
2024-02-12T18:20:18.120Z,16.15
2024-02-12T18:22:46.042Z,20.15
2024-02-12T18:25:15.741Z,17.27
2024-02-12T18:27:44.050Z,16.83
2024-02-12T18:30:12.780Z,18.42
2024-02-12T18:32:41.394Z,20.33
2024-02-12T18:35:11.964Z,20.60
2024-02-12T18:37:41.531Z,17.27
2024-02-12T18:40:17.588Z,17.35
2024-02-12T18:42:47.206Z,22.88
2024-02-12T18:45:17.225Z,15.23
2024-02-12T18:47:48.340Z,17.13
2024-02-12T18:50:18.535Z,20.98
2024-02-12T18:52:49.657Z,16.10
2024-02-12T18:55:18.200Z,18.63
2024-02-12T18:57:47.769Z,17.42
2024-02-12T19:00:16.849Z,14.07
2024-02-12T19:02:46.366Z,19.95
2024-02-12T19:05:14.702Z,20.73
2024-02-12T19:07:44.506Z,15.05
2024-02-12T19:10:13.860Z,17.05
2024-02-12T19:12:43.900Z,17.13
2024-02-12T19:15:15.528Z,13.38
2024-02-12T19:17:44.254Z,16.92
2024-02-12T19:20:13.725Z,18.77
2024-02-12T19:22:41.861Z,18.88
2024-02-12T19:25:12.069Z,13.98
2024-02-12T19:27:43.054Z,13.63
2024-02-12T19:30:12.799Z,14.05
2024-02-12T19:32:40.884Z,13.02
2024-02-12T19:35:11.505Z,16.40
2024-02-12T19:37:40.132Z,13.20
2024-02-12T19:40:14.996Z,9.65
2024-02-12T19:42:47.326Z,16.45
2024-02-12T19:45:15.819Z,13.02
2024-02-12T19:47:44.331Z,14.60
2024-02-12T19:50:14.321Z,12.32
2024-02-12T19:52:43.168Z,13.82
2024-02-12T19:55:12.923Z,16.50
2024-02-12T19:57:42.204Z,12.93
2024-02-12T20:00:15.033Z,14.77
2024-02-12T20:02:44.228Z,9.23
2024-02-12T20:05:12.690Z,18.33
2024-02-12T20:07:41.073Z,16.65
2024-02-12T20:10:10.904Z,14.63
2024-02-12T20:12:39.732Z,18.58
2024-02-12T20:15:12.613Z,15.75
2024-02-12T20:17:42.491Z,15.18
2024-02-12T20:20:12.913Z,14.55
2024-02-12T20:22:42.503Z,14.25
2024-02-12T20:25:11.386Z,16.33
2024-02-12T20:27:40.267Z,12.77
2024-02-12T20:30:11.927Z,14.38
2024-02-12T20:32:42.850Z,12.90
2024-02-12T20:35:15.278Z,12.35
2024-02-12T20:37:43.763Z,9.52
2024-02-12T20:40:14.705Z,15.82
2024-02-12T20:42:42.985Z,13.38
2024-02-12T20:45:12.051Z,14.07
2024-02-12T20:47:41.724Z,12.30
2024-02-12T20:50:11.712Z,15.10
2024-02-12T20:52:39.797Z,16.13
2024-02-12T20:55:11.561Z,10.52
2024-02-12T20:57:39.713Z,14.40
2024-02-12T21:00:09.287Z,15.25
2024-02-12T21:02:37.693Z,12.88
2024-02-12T21:05:10.967Z,9.45
2024-02-12T21:07:39.242Z,14.25
2024-02-12T21:10:08.487Z,10.32
2024-02-12T21:12:36.512Z,13.40
2024-02-12T21:15:06.876Z,13.48
2024-02-12T21:17:35.011Z,13.32
2024-02-12T21:20:05.613Z,11.27
2024-02-12T21:22:34.911Z,14.10
2024-02-12T21:25:03.076Z,10.55
2024-02-12T21:27:31.047Z,12.82
2024-02-12T21:29:59.527Z,9.95
2024-02-12T21:32:28.220Z,8.80
2024-02-12T21:34:57.164Z,12.10
2024-02-12T21:37:26.354Z,13.50
2024-02-12T21:39:55.842Z,12.10
2024-02-12T21:42:28.013Z,13.23
2024-02-12T21:44:58.449Z,13.20
2024-02-12T21:47:28.326Z,10.88
2024-02-12T21:49:56.559Z,13.98
2024-02-12T21:52:26.023Z,13.25
2024-02-12T21:54:55.441Z,13.18
2024-02-12T21:57:24.529Z,15.07
2024-02-12T21:59:54.619Z,7.75
2024-02-12T22:02:23.055Z,11.13
2024-02-12T22:04:52.052Z,10.68
2024-02-12T22:07:20.684Z,12.93
2024-02-12T22:09:48.570Z,11.60
2024-02-12T22:12:17.924Z,13.98
2024-02-12T22:14:48.409Z,11.65
2024-02-12T22:17:16.604Z,18.00
2024-02-12T22:19:44.543Z,13.27
2024-02-12T22:22:12.874Z,15.00
2024-02-12T22:24:41.451Z,12.93
2024-02-12T22:27:09.327Z,16.05
2024-02-12T22:29:38.518Z,15.27
2024-02-12T22:32:06.996Z,10.43
2024-02-12T22:34:35.013Z,10.52
2024-02-12T22:37:02.953Z,13.90
2024-02-12T22:39:30.795Z,14.32
2024-02-12T22:41:58.972Z,10.00
2024-02-12T22:44:26.938Z,11.77
2024-02-12T22:46:56.294Z,11.90
2024-02-12T22:49:24.260Z,16.02
2024-02-12T22:51:54.272Z,13.13
2024-02-12T22:54:22.258Z,14.73
2024-02-12T22:56:50.851Z,11.95
2024-02-12T22:59:19.450Z,11.73
2024-02-12T23:01:47.428Z,11.30
2024-02-12T23:04:16.588Z,13.50
2024-02-12T23:06:44.523Z,13.02
2024-02-12T23:09:12.531Z,10.65
2024-02-12T23:11:40.537Z,16.35
2024-02-12T23:14:10.862Z,11.82
2024-02-12T23:16:39.086Z,9.88
2024-02-12T23:19:07.807Z,9.27
2024-02-12T23:21:37.093Z,8.52
2024-02-12T23:24:05.172Z,9.45
2024-02-12T23:26:33.393Z,14.25
2024-02-12T23:29:01.532Z,11.90
2024-02-12T23:31:34.282Z,9.35
2024-02-12T23:34:02.775Z,8.55
2024-02-12T23:36:31.348Z,10.05
2024-02-12T23:39:00.495Z,10.20
2024-02-12T23:41:28.531Z,12.70
2024-02-12T23:43:56.355Z,12.13
2024-02-12T23:46:24.233Z,11.27
2024-02-12T23:48:52.213Z,10.27
2024-02-12T23:51:20.137Z,11.40
2024-02-12T23:53:48.057Z,10.40
2024-02-12T23:56:22.626Z,12.80
2024-02-12T23:58:50.564Z,9.63
